sensor_id;sensor_type;location;lat;lon;timestamp;P1;durP1;ratioP1;P2;durP2;ratioP2
43363;SDS011;40636;52.424;-1.948;2023-04-25T00:02:16;9.20;;;2.75;;
43363;SDS011;40636;52.424;-1.948;2023-04-25T00:04:44;8.30;;;2.70;;
43363;SDS011;40636;52.424;-1.948;2023-04-25T00:07:11;9.02;;;2.45;;
43363;SDS011;40636;52.424;-1.948;2023-04-25T00:09:38;9.18;;;2.95;;
43363;SDS011;40636;52.424;-1.948;2023-04-25T00:12:05;6.75;;;3.00;;
43363;SDS011;40636;52.424;-1.948;2023-04-25T00:14:32;7.57;;;3.60;;
43363;SDS011;40636;52.424;-1.948;2023-04-25T00:17:02;9.52;;;2.65;;
43363;SDS011;40636;52.424;-1.948;2023-04-25T00:19:32;4.15;;;2.80;;
43363;SDS011;40636;52.424;-1.948;2023-04-25T00:21:58;6.38;;;2.72;;
43363;SDS011;40636;52.424;-1.948;2023-04-25T00:24:25;4.47;;;2.88;;
43363;SDS011;40636;52.424;-1.948;2023-04-25T00:26:52;7.15;;;3.88;;
43363;SDS011;40636;52.424;-1.948;2023-04-25T00:29:18;10.85;;;4.50;;
43363;SDS011;40636;52.424;-1.948;2023-04-25T00:31:45;7.05;;;3.33;;
43363;SDS011;40636;52.424;-1.948;2023-04-25T00:34:12;6.97;;;3.13;;
43363;SDS011;40636;52.424;-1.948;2023-04-25T00:36:38;5.68;;;3.20;;
43363;SDS011;40636;52.424;-1.948;2023-04-25T00:39:05;5.78;;;2.55;;
43363;SDS011;40636;52.424;-1.948;2023-04-25T00:41:32;6.32;;;2.65;;
43363;SDS011;40636;52.424;-1.948;2023-04-25T00:43:59;8.27;;;3.10;;
43363;SDS011;40636;52.424;-1.948;2023-04-25T00:46:27;8.18;;;3.65;;
43363;SDS011;40636;52.424;-1.948;2023-04-25T00:48:54;9.57;;;5.03;;
43363;SDS011;40636;52.424;-1.948;2023-04-25T00:51:21;6.97;;;3.25;;
43363;SDS011;40636;52.424;-1.948;2023-04-25T00:53:48;6.03;;;3.13;;
43363;SDS011;40636;52.424;-1.948;2023-04-25T00:56:16;6.45;;;3.00;;
43363;SDS011;40636;52.424;-1.948;2023-04-25T00:58:43;5.80;;;2.53;;
43363;SDS011;40636;52.424;-1.948;2023-04-25T01:01:11;2.95;;;2.53;;
43363;SDS011;40636;52.424;-1.948;2023-04-25T01:03:39;4.60;;;2.53;;
43363;SDS011;40636;52.424;-1.948;2023-04-25T01:06:09;7.18;;;3.15;;
43363;SDS011;40636;52.424;-1.948;2023-04-25T01:08:37;6.63;;;3.15;;
43363;SDS011;40636;52.424;-1.948;2023-04-25T01:11:05;4.78;;;3.30;;
43363;SDS011;40636;52.424;-1.948;2023-04-25T01:13:33;6.65;;;3.08;;
43363;SDS011;40636;52.424;-1.948;2023-04-25T01:16:00;6.20;;;2.72;;
43363;SDS011;40636;52.424;-1.948;2023-04-25T01:18:28;7.15;;;4.05;;
43363;SDS011;40636;52.424;-1.948;2023-04-25T01:20:55;8.07;;;3.42;;
43363;SDS011;40636;52.424;-1.948;2023-04-25T01:23:24;8.80;;;3.83;;
43363;SDS011;40636;52.424;-1.948;2023-04-25T01:25:51;5.57;;;3.13;;
43363;SDS011;40636;52.424;-1.948;2023-04-25T01:28:18;4.97;;;2.85;;
43363;SDS011;40636;52.424;-1.948;2023-04-25T01:30:45;4.22;;;2.72;;
43363;SDS011;40636;52.424;-1.948;2023-04-25T01:33:13;8.88;;;3.47;;
43363;SDS011;40636;52.424;-1.948;2023-04-25T01:35:40;6.55;;;3.42;;
43363;SDS011;40636;52.424;-1.948;2023-04-25T01:38:07;6.40;;;2.47;;
43363;SDS011;40636;52.424;-1.948;2023-04-25T01:40:34;8.18;;;3.42;;
43363;SDS011;40636;52.424;-1.948;2023-04-25T01:43:03;5.43;;;3.10;;
43363;SDS011;40636;52.424;-1.948;2023-04-25T01:45:30;7.85;;;3.22;;
43363;SDS011;40636;52.424;-1.948;2023-04-25T01:47:56;11.68;;;3.25;;
43363;SDS011;40636;52.424;-1.948;2023-04-25T01:50:25;6.53;;;3.20;;
43363;SDS011;40636;52.424;-1.948;2023-04-25T01:52:52;7.93;;;2.90;;
43363;SDS011;40636;52.424;-1.948;2023-04-25T01:55:20;9.48;;;3.90;;
43363;SDS011;40636;52.424;-1.948;2023-04-25T01:57:46;7.57;;;2.75;;
43363;SDS011;40636;52.424;-1.948;2023-04-25T02:00:13;6.65;;;2.80;;
43363;SDS011;40636;52.424;-1.948;2023-04-25T02:02:40;5.68;;;2.92;;
43363;SDS011;40636;52.424;-1.948;2023-04-25T02:05:07;10.90;;;3.50;;
43363;SDS011;40636;52.424;-1.948;2023-04-25T02:07:34;7.35;;;3.83;;
43363;SDS011;40636;52.424;-1.948;2023-04-25T02:10:00;4.70;;;2.78;;
43363;SDS011;40636;52.424;-1.948;2023-04-25T02:12:27;11.00;;;3.33;;
43363;SDS011;40636;52.424;-1.948;2023-04-25T02:14:54;5.78;;;3.35;;
43363;SDS011;40636;52.424;-1.948;2023-04-25T02:17:21;7.30;;;2.80;;
43363;SDS011;40636;52.424;-1.948;2023-04-25T02:19:47;4.68;;;2.88;;
43363;SDS011;40636;52.424;-1.948;2023-04-25T02:22:14;6.53;;;3.70;;
43363;SDS011;40636;52.424;-1.948;2023-04-25T02:24:41;6.18;;;3.10;;
43363;SDS011;40636;52.424;-1.948;2023-04-25T02:27:07;8.77;;;3.50;;
43363;SDS011;40636;52.424;-1.948;2023-04-25T02:29:34;10.50;;;3.70;;
43363;SDS011;40636;52.424;-1.948;2023-04-25T02:32:01;8.90;;;4.45;;
43363;SDS011;40636;52.424;-1.948;2023-04-25T02:34:28;8.20;;;3.55;;
43363;SDS011;40636;52.424;-1.948;2023-04-25T02:36:54;8.93;;;3.17;;
43363;SDS011;40636;52.424;-1.948;2023-04-25T02:39:21;5.05;;;3.30;;
43363;SDS011;40636;52.424;-1.948;2023-04-25T02:41:48;6.72;;;2.83;;
43363;SDS011;40636;52.424;-1.948;2023-04-25T02:44:15;4.70;;;2.40;;
43363;SDS011;40636;52.424;-1.948;2023-04-25T02:46:41;5.25;;;2.45;;
43363;SDS011;40636;52.424;-1.948;2023-04-25T02:49:08;4.57;;;3.00;;
43363;SDS011;40636;52.424;-1.948;2023-04-25T02:51:34;8.70;;;3.33;;
43363;SDS011;40636;52.424;-1.948;2023-04-25T02:54:01;7.22;;;3.55;;
43363;SDS011;40636;52.424;-1.948;2023-04-25T02:56:28;6.07;;;3.13;;
43363;SDS011;40636;52.424;-1.948;2023-04-25T02:58:55;3.90;;;2.72;;
43363;SDS011;40636;52.424;-1.948;2023-04-25T03:01:21;4.10;;;2.42;;
43363;SDS011;40636;52.424;-1.948;2023-04-25T03:03:48;14.35;;;3.25;;
43363;SDS011;40636;52.424;-1.948;2023-04-25T03:06:15;5.57;;;2.58;;
43363;SDS011;40636;52.424;-1.948;2023-04-25T03:08:42;9.63;;;2.75;;
43363;SDS011;40636;52.424;-1.948;2023-04-25T03:11:09;3.63;;;2.90;;
43363;SDS011;40636;52.424;-1.948;2023-04-25T03:13:36;3.55;;;2.25;;
43363;SDS011;40636;52.424;-1.948;2023-04-25T03:16:03;4.15;;;2.72;;
43363;SDS011;40636;52.424;-1.948;2023-04-25T03:18:30;6.65;;;2.92;;
43363;SDS011;40636;52.424;-1.948;2023-04-25T03:20:57;7.93;;;3.50;;
43363;SDS011;40636;52.424;-1.948;2023-04-25T03:23:24;5.43;;;2.80;;
43363;SDS011;40636;52.424;-1.948;2023-04-25T03:25:50;4.22;;;2.70;;
43363;SDS011;40636;52.424;-1.948;2023-04-25T03:28:17;6.38;;;2.70;;
43363;SDS011;40636;52.424;-1.948;2023-04-25T03:30:44;5.03;;;2.20;;
43363;SDS011;40636;52.424;-1.948;2023-04-25T03:33:10;5.60;;;2.50;;
43363;SDS011;40636;52.424;-1.948;2023-04-25T03:35:37;9.27;;;3.08;;
43363;SDS011;40636;52.424;-1.948;2023-04-25T03:38:04;6.63;;;2.92;;
43363;SDS011;40636;52.424;-1.948;2023-04-25T03:40:30;5.25;;;2.63;;
43363;SDS011;40636;52.424;-1.948;2023-04-25T03:42:57;3.97;;;2.55;;
43363;SDS011;40636;52.424;-1.948;2023-04-25T03:45:24;8.40;;;3.05;;
43363;SDS011;40636;52.424;-1.948;2023-04-25T03:47:51;10.90;;;2.88;;
43363;SDS011;40636;52.424;-1.948;2023-04-25T03:50:17;2.92;;;2.63;;
43363;SDS011;40636;52.424;-1.948;2023-04-25T03:52:44;7.75;;;3.40;;
43363;SDS011;40636;52.424;-1.948;2023-04-25T03:55:11;10.18;;;3.10;;
43363;SDS011;40636;52.424;-1.948;2023-04-25T03:57:37;4.38;;;2.67;;
43363;SDS011;40636;52.424;-1.948;2023-04-25T04:00:04;5.25;;;2.83;;
43363;SDS011;40636;52.424;-1.948;2023-04-25T04:02:32;7.05;;;2.53;;
43363;SDS011;40636;52.424;-1.948;2023-04-25T04:05:01;6.53;;;2.50;;
43363;SDS011;40636;52.424;-1.948;2023-04-25T04:07:29;4.03;;;2.65;;
43363;SDS011;40636;52.424;-1.948;2023-04-25T04:09:56;3.95;;;2.58;;
43363;SDS011;40636;52.424;-1.948;2023-04-25T04:12:22;3.47;;;2.78;;
43363;SDS011;40636;52.424;-1.948;2023-04-25T04:14:49;5.78;;;3.20;;
43363;SDS011;40636;52.424;-1.948;2023-04-25T04:17:15;4.22;;;3.45;;
43363;SDS011;40636;52.424;-1.948;2023-04-25T04:19:42;8.18;;;2.95;;
43363;SDS011;40636;52.424;-1.948;2023-04-25T04:22:09;5.43;;;3.33;;
43363;SDS011;40636;52.424;-1.948;2023-04-25T04:24:36;4.63;;;3.25;;
43363;SDS011;40636;52.424;-1.948;2023-04-25T04:27:02;3.65;;;2.28;;
43363;SDS011;40636;52.424;-1.948;2023-04-25T04:29:30;6.75;;;2.88;;
43363;SDS011;40636;52.424;-1.948;2023-04-25T04:31:57;6.90;;;2.85;;
43363;SDS011;40636;52.424;-1.948;2023-04-25T04:34:24;5.47;;;2.58;;
43363;SDS011;40636;52.424;-1.948;2023-04-25T04:36:51;6.07;;;2.58;;
43363;SDS011;40636;52.424;-1.948;2023-04-25T04:39:18;6.03;;;2.72;;
43363;SDS011;40636;52.424;-1.948;2023-04-25T04:41:45;6.47;;;2.35;;
43363;SDS011;40636;52.424;-1.948;2023-04-25T04:44:12;3.60;;;2.40;;
43363;SDS011;40636;52.424;-1.948;2023-04-25T04:46:40;4.57;;;2.50;;
43363;SDS011;40636;52.424;-1.948;2023-04-25T04:49:11;5.45;;;2.95;;
43363;SDS011;40636;52.424;-1.948;2023-04-25T04:51:38;7.78;;;3.20;;
43363;SDS011;40636;52.424;-1.948;2023-04-25T04:54:05;6.93;;;2.33;;
43363;SDS011;40636;52.424;-1.948;2023-04-25T04:56:32;4.28;;;2.88;;
43363;SDS011;40636;52.424;-1.948;2023-04-25T04:58:59;17.52;;;2.70;;
43363;SDS011;40636;52.424;-1.948;2023-04-25T05:01:26;8.00;;;2.55;;
43363;SDS011;40636;52.424;-1.948;2023-04-25T05:03:53;5.50;;;3.42;;
43363;SDS011;40636;52.424;-1.948;2023-04-25T05:06:20;3.40;;;2.95;;
43363;SDS011;40636;52.424;-1.948;2023-04-25T05:08:47;7.68;;;3.35;;
43363;SDS011;40636;52.424;-1.948;2023-04-25T05:11:14;4.22;;;2.65;;
43363;SDS011;40636;52.424;-1.948;2023-04-25T05:13:40;6.53;;;2.88;;
43363;SDS011;40636;52.424;-1.948;2023-04-25T05:16:07;6.85;;;2.92;;
43363;SDS011;40636;52.424;-1.948;2023-04-25T05:18:34;5.15;;;3.08;;
43363;SDS011;40636;52.424;-1.948;2023-04-25T05:21:01;5.07;;;3.28;;
43363;SDS011;40636;52.424;-1.948;2023-04-25T05:23:27;4.03;;;2.70;;
43363;SDS011;40636;52.424;-1.948;2023-04-25T05:25:58;5.40;;;3.13;;
43363;SDS011;40636;52.424;-1.948;2023-04-25T05:28:25;4.32;;;2.72;;
43363;SDS011;40636;52.424;-1.948;2023-04-25T05:30:52;4.00;;;2.90;;
43363;SDS011;40636;52.424;-1.948;2023-04-25T05:33:19;9.23;;;3.65;;
43363;SDS011;40636;52.424;-1.948;2023-04-25T05:35:46;11.73;;;3.55;;
43363;SDS011;40636;52.424;-1.948;2023-04-25T05:38:13;9.45;;;3.42;;
43363;SDS011;40636;52.424;-1.948;2023-04-25T05:40:40;6.63;;;2.65;;
43363;SDS011;40636;52.424;-1.948;2023-04-25T05:43:07;7.22;;;2.85;;
43363;SDS011;40636;52.424;-1.948;2023-04-25T05:45:33;5.63;;;3.30;;
43363;SDS011;40636;52.424;-1.948;2023-04-25T05:48:00;6.70;;;2.85;;
43363;SDS011;40636;52.424;-1.948;2023-04-25T05:50:27;6.45;;;3.00;;
43363;SDS011;40636;52.424;-1.948;2023-04-25T05:52:53;7.22;;;3.33;;
43363;SDS011;40636;52.424;-1.948;2023-04-25T05:55:20;8.02;;;3.22;;
43363;SDS011;40636;52.424;-1.948;2023-04-25T05:57:47;8.73;;;3.58;;
43363;SDS011;40636;52.424;-1.948;2023-04-25T06:00:16;4.35;;;2.85;;
43363;SDS011;40636;52.424;-1.948;2023-04-25T06:02:45;7.43;;;3.42;;
43363;SDS011;40636;52.424;-1.948;2023-04-25T06:05:12;6.28;;;3.42;;
43363;SDS011;40636;52.424;-1.948;2023-04-25T06:07:39;10.07;;;4.30;;
43363;SDS011;40636;52.424;-1.948;2023-04-25T06:10:06;6.20;;;3.83;;
43363;SDS011;40636;52.424;-1.948;2023-04-25T06:12:33;9.13;;;3.97;;
43363;SDS011;40636;52.424;-1.948;2023-04-25T06:15:00;6.15;;;4.05;;
43363;SDS011;40636;52.424;-1.948;2023-04-25T06:17:28;6.90;;;3.47;;
43363;SDS011;40636;52.424;-1.948;2023-04-25T06:19:55;9.48;;;4.28;;
43363;SDS011;40636;52.424;-1.948;2023-04-25T06:22:22;12.27;;;5.47;;
43363;SDS011;40636;52.424;-1.948;2023-04-25T06:24:48;6.55;;;3.63;;
43363;SDS011;40636;52.424;-1.948;2023-04-25T06:27:15;6.45;;;3.40;;
43363;SDS011;40636;52.424;-1.948;2023-04-25T06:29:42;12.25;;;3.25;;
43363;SDS011;40636;52.424;-1.948;2023-04-25T06:32:09;9.07;;;3.60;;
43363;SDS011;40636;52.424;-1.948;2023-04-25T06:34:36;9.30;;;3.65;;
43363;SDS011;40636;52.424;-1.948;2023-04-25T06:37:03;5.00;;;2.88;;
43363;SDS011;40636;52.424;-1.948;2023-04-25T06:39:29;9.73;;;3.53;;
43363;SDS011;40636;52.424;-1.948;2023-04-25T06:41:56;6.47;;;2.60;;
43363;SDS011;40636;52.424;-1.948;2023-04-25T06:44:23;6.93;;;2.40;;
43363;SDS011;40636;52.424;-1.948;2023-04-25T06:46:50;9.95;;;4.38;;
43363;SDS011;40636;52.424;-1.948;2023-04-25T06:49:17;6.82;;;2.33;;
43363;SDS011;40636;52.424;-1.948;2023-04-25T06:51:43;3.40;;;1.98;;
43363;SDS011;40636;52.424;-1.948;2023-04-25T06:54:10;11.05;;;3.17;;
43363;SDS011;40636;52.424;-1.948;2023-04-25T06:56:37;5.80;;;2.03;;
43363;SDS011;40636;52.424;-1.948;2023-04-25T06:59:04;11.38;;;2.65;;
43363;SDS011;40636;52.424;-1.948;2023-04-25T07:01:30;7.10;;;2.65;;
43363;SDS011;40636;52.424;-1.948;2023-04-25T07:03:57;7.32;;;2.03;;
43363;SDS011;40636;52.424;-1.948;2023-04-25T07:06:24;5.57;;;2.53;;
43363;SDS011;40636;52.424;-1.948;2023-04-25T07:08:52;3.38;;;1.80;;
43363;SDS011;40636;52.424;-1.948;2023-04-25T07:11:18;3.75;;;2.03;;
43363;SDS011;40636;52.424;-1.948;2023-04-25T07:13:45;7.68;;;2.50;;
43363;SDS011;40636;52.424;-1.948;2023-04-25T07:16:12;5.05;;;2.13;;
43363;SDS011;40636;52.424;-1.948;2023-04-25T07:18:39;5.35;;;2.30;;
43363;SDS011;40636;52.424;-1.948;2023-04-25T07:21:06;7.63;;;2.53;;
43363;SDS011;40636;52.424;-1.948;2023-04-25T07:23:32;8.65;;;2.95;;
43363;SDS011;40636;52.424;-1.948;2023-04-25T07:25:59;5.03;;;2.10;;
43363;SDS011;40636;52.424;-1.948;2023-04-25T07:28:26;9.73;;;4.47;;
43363;SDS011;40636;52.424;-1.948;2023-04-25T07:30:52;7.05;;;2.55;;
43363;SDS011;40636;52.424;-1.948;2023-04-25T07:33:19;5.55;;;2.58;;
43363;SDS011;40636;52.424;-1.948;2023-04-25T07:35:46;8.18;;;2.17;;
43363;SDS011;40636;52.424;-1.948;2023-04-25T07:38:13;7.20;;;2.10;;
43363;SDS011;40636;52.424;-1.948;2023-04-25T07:40:40;3.92;;;1.90;;
43363;SDS011;40636;52.424;-1.948;2023-04-25T07:43:07;7.57;;;2.25;;
43363;SDS011;40636;52.424;-1.948;2023-04-25T07:45:34;4.57;;;2.25;;
43363;SDS011;40636;52.424;-1.948;2023-04-25T07:48:00;4.80;;;1.90;;
43363;SDS011;40636;52.424;-1.948;2023-04-25T07:50:27;3.85;;;2.20;;
43363;SDS011;40636;52.424;-1.948;2023-04-25T07:52:54;9.60;;;2.95;;
43363;SDS011;40636;52.424;-1.948;2023-04-25T07:55:20;3.97;;;1.80;;
43363;SDS011;40636;52.424;-1.948;2023-04-25T07:57:47;4.15;;;1.35;;
43363;SDS011;40636;52.424;-1.948;2023-04-25T08:00:14;8.10;;;2.28;;
43363;SDS011;40636;52.424;-1.948;2023-04-25T08:02:41;3.63;;;1.80;;
43363;SDS011;40636;52.424;-1.948;2023-04-25T08:05:08;9.10;;;2.13;;
43363;SDS011;40636;52.424;-1.948;2023-04-25T08:07:38;3.58;;;1.50;;
43363;SDS011;40636;52.424;-1.948;2023-04-25T08:10:05;10.05;;;2.10;;
43363;SDS011;40636;52.424;-1.948;2023-04-25T08:12:33;5.80;;;1.95;;
43363;SDS011;40636;52.424;-1.948;2023-04-25T08:15:00;2.40;;;1.27;;
43363;SDS011;40636;52.424;-1.948;2023-04-25T08:17:26;3.78;;;1.77;;
43363;SDS011;40636;52.424;-1.948;2023-04-25T08:19:53;7.97;;;1.98;;
43363;SDS011;40636;52.424;-1.948;2023-04-25T08:22:20;3.42;;;1.55;;
43363;SDS011;40636;52.424;-1.948;2023-04-25T08:24:47;3.00;;;1.50;;
43363;SDS011;40636;52.424;-1.948;2023-04-25T08:27:14;8.18;;;1.92;;
43363;SDS011;40636;52.424;-1.948;2023-04-25T08:29:41;3.90;;;1.80;;
43363;SDS011;40636;52.424;-1.948;2023-04-25T08:32:08;2.55;;;1.45;;
43363;SDS011;40636;52.424;-1.948;2023-04-25T08:34:35;3.40;;;1.48;;
43363;SDS011;40636;52.424;-1.948;2023-04-25T08:37:04;4.72;;;1.50;;
43363;SDS011;40636;52.424;-1.948;2023-04-25T08:39:31;7.80;;;1.77;;
43363;SDS011;40636;52.424;-1.948;2023-04-25T08:41:58;3.05;;;1.85;;
43363;SDS011;40636;52.424;-1.948;2023-04-25T08:44:27;1.70;;;1.20;;
43363;SDS011;40636;52.424;-1.948;2023-04-25T08:46:53;6.65;;;1.50;;
43363;SDS011;40636;52.424;-1.948;2023-04-25T08:49:22;9.95;;;1.65;;
43363;SDS011;40636;52.424;-1.948;2023-04-25T08:51:49;6.40;;;1.80;;
43363;SDS011;40636;52.424;-1.948;2023-04-25T08:54:17;4.65;;;1.55;;
43363;SDS011;40636;52.424;-1.948;2023-04-25T08:57:01;4.53;;;1.60;;
43363;SDS011;40636;52.424;-1.948;2023-04-25T08:59:31;5.68;;;1.70;;
43363;SDS011;40636;52.424;-1.948;2023-04-25T09:02:00;2.67;;;1.50;;
43363;SDS011;40636;52.424;-1.948;2023-04-25T09:04:27;2.22;;;1.50;;
43363;SDS011;40636;52.424;-1.948;2023-04-25T09:06:57;2.10;;;1.55;;
43363;SDS011;40636;52.424;-1.948;2023-04-25T09:09:25;1.42;;;1.23;;
43363;SDS011;40636;52.424;-1.948;2023-04-25T09:11:53;7.00;;;1.83;;
43363;SDS011;40636;52.424;-1.948;2023-04-25T09:14:21;3.17;;;1.80;;
43363;SDS011;40636;52.424;-1.948;2023-04-25T09:17:10;3.97;;;1.40;;
43363;SDS011;40636;52.424;-1.948;2023-04-25T09:19:36;2.00;;;1.35;;
43363;SDS011;40636;52.424;-1.948;2023-04-25T09:22:08;4.68;;;1.48;;
43363;SDS011;40636;52.424;-1.948;2023-04-25T09:27:03;1.70;;;1.30;;
43363;SDS011;40636;52.424;-1.948;2023-04-25T09:29:37;5.20;;;1.65;;
43363;SDS011;40636;52.424;-1.948;2023-04-25T09:32:17;1.70;;;1.05;;
43363;SDS011;40636;52.424;-1.948;2023-04-25T09:34:49;6.53;;;1.38;;
43363;SDS011;40636;52.424;-1.948;2023-04-25T09:37:27;4.63;;;1.30;;
43363;SDS011;40636;52.424;-1.948;2023-04-25T09:39:56;3.20;;;1.33;;
43363;SDS011;40636;52.424;-1.948;2023-04-25T09:42:31;2.90;;;1.13;;
43363;SDS011;40636;52.424;-1.948;2023-04-25T09:45:03;3.60;;;1.38;;
43363;SDS011;40636;52.424;-1.948;2023-04-25T09:47:30;1.52;;;0.90;;
43363;SDS011;40636;52.424;-1.948;2023-04-25T09:49:57;2.10;;;1.83;;
43363;SDS011;40636;52.424;-1.948;2023-04-25T09:52:24;1.90;;;1.23;;
43363;SDS011;40636;52.424;-1.948;2023-04-25T09:54:51;1.33;;;1.20;;
43363;SDS011;40636;52.424;-1.948;2023-04-25T09:57:23;4.72;;;1.50;;
43363;SDS011;40636;52.424;-1.948;2023-04-25T09:59:53;2.40;;;1.27;;
43363;SDS011;40636;52.424;-1.948;2023-04-25T10:02:22;1.17;;;1.05;;
43363;SDS011;40636;52.424;-1.948;2023-04-25T10:04:53;2.80;;;1.25;;
43363;SDS011;40636;52.424;-1.948;2023-04-25T10:07:22;3.35;;;1.23;;
43363;SDS011;40636;52.424;-1.948;2023-04-25T10:09:59;2.95;;;1.30;;
43363;SDS011;40636;52.424;-1.948;2023-04-25T10:14:59;3.33;;;1.30;;
43363;SDS011;40636;52.424;-1.948;2023-04-25T10:17:27;4.22;;;1.52;;
43363;SDS011;40636;52.424;-1.948;2023-04-25T10:19:56;4.20;;;1.67;;
43363;SDS011;40636;52.424;-1.948;2023-04-25T10:22:34;1.95;;;1.13;;
43363;SDS011;40636;52.424;-1.948;2023-04-25T10:25:03;3.78;;;1.60;;
43363;SDS011;40636;52.424;-1.948;2023-04-25T10:27:33;3.25;;;1.25;;
43363;SDS011;40636;52.424;-1.948;2023-04-25T10:30:07;2.00;;;1.40;;
43363;SDS011;40636;52.424;-1.948;2023-04-25T10:32:39;1.50;;;1.10;;
43363;SDS011;40636;52.424;-1.948;2023-04-25T10:35:10;1.70;;;1.10;;
43363;SDS011;40636;52.424;-1.948;2023-04-25T10:37:56;3.80;;;1.40;;
43363;SDS011;40636;52.424;-1.948;2023-04-25T10:40:29;3.40;;;1.40;;
43363;SDS011;40636;52.424;-1.948;2023-04-25T10:43:32;3.10;;;1.45;;
43363;SDS011;40636;52.424;-1.948;2023-04-25T10:46:01;1.17;;;1.00;;
43363;SDS011;40636;52.424;-1.948;2023-04-25T10:48:29;4.20;;;1.48;;
43363;SDS011;40636;52.424;-1.948;2023-04-25T10:53:35;2.65;;;2.08;;
43363;SDS011;40636;52.424;-1.948;2023-04-25T10:56:18;3.75;;;1.27;;
43363;SDS011;40636;52.424;-1.948;2023-04-25T10:58:46;2.13;;;1.58;;
43363;SDS011;40636;52.424;-1.948;2023-04-25T11:01:21;2.70;;;1.58;;
43363;SDS011;40636;52.424;-1.948;2023-04-25T11:03:56;4.32;;;1.50;;
43363;SDS011;40636;52.424;-1.948;2023-04-25T11:06:29;4.68;;;1.40;;
43363;SDS011;40636;52.424;-1.948;2023-04-25T11:08:59;3.97;;;1.27;;
43363;SDS011;40636;52.424;-1.948;2023-04-25T11:11:29;3.30;;;1.50;;
43363;SDS011;40636;52.424;-1.948;2023-04-25T11:13:57;2.22;;;1.27;;
43363;SDS011;40636;52.424;-1.948;2023-04-25T11:16:24;6.55;;;1.40;;
43363;SDS011;40636;52.424;-1.948;2023-04-25T11:19:12;2.35;;;1.38;;
43363;SDS011;40636;52.424;-1.948;2023-04-25T11:21:42;2.17;;;1.45;;
43363;SDS011;40636;52.424;-1.948;2023-04-25T11:24:09;2.47;;;1.48;;
43363;SDS011;40636;52.424;-1.948;2023-04-25T11:26:36;2.22;;;1.83;;
43363;SDS011;40636;52.424;-1.948;2023-04-25T11:29:03;5.68;;;1.50;;
43363;SDS011;40636;52.424;-1.948;2023-04-25T11:31:30;4.95;;;1.80;;
43363;SDS011;40636;52.424;-1.948;2023-04-25T11:33:57;4.82;;;1.33;;
43363;SDS011;40636;52.424;-1.948;2023-04-25T11:36:24;2.90;;;1.42;;
43363;SDS011;40636;52.424;-1.948;2023-04-25T11:38:53;1.88;;;1.45;;
43363;SDS011;40636;52.424;-1.948;2023-04-25T11:41:20;1.58;;;1.40;;
43363;SDS011;40636;52.424;-1.948;2023-04-25T11:43:48;3.47;;;2.00;;
43363;SDS011;40636;52.424;-1.948;2023-04-25T11:46:16;4.57;;;1.63;;
43363;SDS011;40636;52.424;-1.948;2023-04-25T11:48:43;5.13;;;1.65;;
43363;SDS011;40636;52.424;-1.948;2023-04-25T11:51:09;2.22;;;1.40;;
43363;SDS011;40636;52.424;-1.948;2023-04-25T11:53:36;4.70;;;2.38;;
43363;SDS011;40636;52.424;-1.948;2023-04-25T11:56:10;4.13;;;1.50;;
43363;SDS011;40636;52.424;-1.948;2023-04-25T11:58:54;5.53;;;1.85;;
43363;SDS011;40636;52.424;-1.948;2023-04-25T12:01:26;3.25;;;2.22;;
43363;SDS011;40636;52.424;-1.948;2023-04-25T12:04:20;6.50;;;2.35;;
43363;SDS011;40636;52.424;-1.948;2023-04-25T12:06:53;3.80;;;1.90;;
43363;SDS011;40636;52.424;-1.948;2023-04-25T12:09:21;4.25;;;1.95;;
43363;SDS011;40636;52.424;-1.948;2023-04-25T12:11:55;3.58;;;1.67;;
43363;SDS011;40636;52.424;-1.948;2023-04-25T12:14:23;4.35;;;1.75;;
43363;SDS011;40636;52.424;-1.948;2023-04-25T12:16:54;3.60;;;1.80;;
43363;SDS011;40636;52.424;-1.948;2023-04-25T12:19:27;8.65;;;2.65;;
43363;SDS011;40636;52.424;-1.948;2023-04-25T12:21:59;2.42;;;1.85;;
43363;SDS011;40636;52.424;-1.948;2023-04-25T12:24:27;2.10;;;1.60;;
43363;SDS011;40636;52.424;-1.948;2023-04-25T12:27:01;3.30;;;1.48;;
43363;SDS011;40636;52.424;-1.948;2023-04-25T12:29:31;2.27;;;1.60;;
43363;SDS011;40636;52.424;-1.948;2023-04-25T12:32:14;2.58;;;1.50;;
43363;SDS011;40636;52.424;-1.948;2023-04-25T12:34:42;3.20;;;1.42;;
43363;SDS011;40636;52.424;-1.948;2023-04-25T12:37:08;2.70;;;1.67;;
43363;SDS011;40636;52.424;-1.948;2023-04-25T12:39:35;2.72;;;1.58;;
43363;SDS011;40636;52.424;-1.948;2023-04-25T12:42:03;2.60;;;1.80;;
43363;SDS011;40636;52.424;-1.948;2023-04-25T12:44:34;6.60;;;2.05;;
43363;SDS011;40636;52.424;-1.948;2023-04-25T12:47:01;2.97;;;1.40;;
43363;SDS011;40636;52.424;-1.948;2023-04-25T12:49:29;2.33;;;1.60;;
43363;SDS011;40636;52.424;-1.948;2023-04-25T12:51:56;3.00;;;1.83;;
43363;SDS011;40636;52.424;-1.948;2023-04-25T12:54:24;2.45;;;1.55;;
43363;SDS011;40636;52.424;-1.948;2023-04-25T12:56:52;4.15;;;1.77;;
43363;SDS011;40636;52.424;-1.948;2023-04-25T12:59:18;2.17;;;1.45;;
43363;SDS011;40636;52.424;-1.948;2023-04-25T13:01:46;6.30;;;1.70;;
43363;SDS011;40636;52.424;-1.948;2023-04-25T13:04:14;2.97;;;1.50;;
43363;SDS011;40636;52.424;-1.948;2023-04-25T13:06:41;2.60;;;1.52;;
43363;SDS011;40636;52.424;-1.948;2023-04-25T13:09:08;2.35;;;1.48;;
43363;SDS011;40636;52.424;-1.948;2023-04-25T13:11:35;3.20;;;1.77;;
43363;SDS011;40636;52.424;-1.948;2023-04-25T13:14:02;3.90;;;1.92;;
43363;SDS011;40636;52.424;-1.948;2023-04-25T13:16:29;6.38;;;1.90;;
43363;SDS011;40636;52.424;-1.948;2023-04-25T13:18:56;4.38;;;2.20;;
43363;SDS011;40636;52.424;-1.948;2023-04-25T13:21:23;2.40;;;2.08;;
43363;SDS011;40636;52.424;-1.948;2023-04-25T13:23:50;2.50;;;1.60;;
43363;SDS011;40636;52.424;-1.948;2023-04-25T13:26:17;1.55;;;1.45;;
43363;SDS011;40636;52.424;-1.948;2023-04-25T13:28:44;5.35;;;1.70;;
43363;SDS011;40636;52.424;-1.948;2023-04-25T13:31:12;5.15;;;1.60;;
43363;SDS011;40636;52.424;-1.948;2023-04-25T13:33:39;3.40;;;1.98;;
43363;SDS011;40636;52.424;-1.948;2023-04-25T13:36:06;4.30;;;1.65;;
43363;SDS011;40636;52.424;-1.948;2023-04-25T13:38:33;2.78;;;1.75;;
43363;SDS011;40636;52.424;-1.948;2023-04-25T13:40:59;5.57;;;2.08;;
43363;SDS011;40636;52.424;-1.948;2023-04-25T13:43:27;2.67;;;1.70;;
43363;SDS011;40636;52.424;-1.948;2023-04-25T13:45:53;2.30;;;1.80;;
43363;SDS011;40636;52.424;-1.948;2023-04-25T13:48:20;4.22;;;2.50;;
43363;SDS011;40636;52.424;-1.948;2023-04-25T13:50:48;5.38;;;1.73;;
43363;SDS011;40636;52.424;-1.948;2023-04-25T13:53:15;2.58;;;1.50;;
43363;SDS011;40636;52.424;-1.948;2023-04-25T13:55:42;3.85;;;2.10;;
43363;SDS011;40636;52.424;-1.948;2023-04-25T13:58:08;2.58;;;1.60;;
43363;SDS011;40636;52.424;-1.948;2023-04-25T14:00:36;4.90;;;2.67;;
43363;SDS011;40636;52.424;-1.948;2023-04-25T14:03:05;1.83;;;1.50;;
43363;SDS011;40636;52.424;-1.948;2023-04-25T14:05:36;4.47;;;1.90;;
43363;SDS011;40636;52.424;-1.948;2023-04-25T14:08:07;3.97;;;1.95;;
43363;SDS011;40636;52.424;-1.948;2023-04-25T14:10:34;3.50;;;2.20;;
43363;SDS011;40636;52.424;-1.948;2023-04-25T14:13:02;4.00;;;2.03;;
43363;SDS011;40636;52.424;-1.948;2023-04-25T14:15:32;4.40;;;1.92;;
43363;SDS011;40636;52.424;-1.948;2023-04-25T14:18:00;3.80;;;1.90;;
43363;SDS011;40636;52.424;-1.948;2023-04-25T14:20:27;3.08;;;2.13;;
43363;SDS011;40636;52.424;-1.948;2023-04-25T14:22:54;1.83;;;1.60;;
43363;SDS011;40636;52.424;-1.948;2023-04-25T14:25:22;8.07;;;2.97;;
43363;SDS011;40636;52.424;-1.948;2023-04-25T14:27:49;3.08;;;1.90;;
43363;SDS011;40636;52.424;-1.948;2023-04-25T14:30:17;2.30;;;1.75;;
43363;SDS011;40636;52.424;-1.948;2023-04-25T14:32:44;4.47;;;1.90;;
43363;SDS011;40636;52.424;-1.948;2023-04-25T14:35:11;2.45;;;1.55;;
43363;SDS011;40636;52.424;-1.948;2023-04-25T14:37:39;4.85;;;2.10;;
43363;SDS011;40636;52.424;-1.948;2023-04-25T14:40:06;5.03;;;1.80;;
43363;SDS011;40636;52.424;-1.948;2023-04-25T14:42:37;1.40;;;1.30;;
43363;SDS011;40636;52.424;-1.948;2023-04-25T14:45:04;6.13;;;2.10;;
43363;SDS011;40636;52.424;-1.948;2023-04-25T14:47:34;6.30;;;2.25;;